SKBG

Palonegro Airport

Bucaramanga, Colombia
TAF SKBG 132300Z 1400/1424 33008KT 9999 SCT015CB SCT017 TEMPO 1400/1402 VCSH BECMG 1401/1403 VRB02KT FEW020 TEMPO 1409/1413 6000 VCFG BKN008 TEMPO 1419/1423 33005KT SCT017CB TX28/1418Z TN18/1411Z
Issued Valid From Valid To
Dec-13 @ 23:00 UTC
(5 hours ago)
Dec-14 @ 00:00 UTC
(4 hours ago)
Dec-15 @ 00:00 UTC
(in 20 hours)
Expired Click to View Dec-14 @ 00:00 to Dec-14 @ 01:00
TAF SKBG 132300Z 1400/1424 33008KT 9999 SCT015CB SCT017
Wind Visibility Clouds
330° at 8 knots 10,000+ meters
  • Scattered at 1,500' AGL
  • Scattered at 1,700' AGL
Expired Click to View Dec-14 @ 00:00 to Dec-14 @ 02:00
TEMPO 1400/1402 VCSH
Becoming Dec-14 @ 01:00 to Dec-15 @ 00:00
BECMG 1401/1403 VRB02KT FEW020
Wind Visibility Clouds
Variable at 2 knots 10,000+ meters
  • Few at 2,000' AGL
Temporary Dec-14 @ 09:00 to Dec-14 @ 13:00
TEMPO 1409/1413 6000 VCFG BKN008
Visibility Clouds Conditions
6,003 meters
  • Broken at 800' AGL
  • Area Fog
Temporary Dec-14 @ 19:00 to Dec-14 @ 23:00
TEMPO 1419/1423 33005KT SCT017CB TX28/1418Z TN18/1411Z
Wind Clouds
330° at 5 knots
  • Scattered at 1,700' AGL
TAF SKBG 132300Z 1400/1424 33008KT 9999 SCT015CB SCT017 TEMPO 1400/1402 VCSH BECMG 1401/1403 VRB02KT FEW020 TEMPO 1409/1413 6000 VCFG BKN008 TEMPO 1419/1423 33005KT SCT017CB TX28/1418Z TN18/1411Z
Issued Dec-13 @ 23:00 UTC
(5 hours ago)
Valid From Dec-14 @ 00:00 UTC
(4 hours ago)
Valid To Dec-15 @ 00:00 UTC
(in 20 hours)
Dec-14 @ 00:00 - Dec-14 @ 01:00
Wind Visibility
330° at 8 knots 10,000+ meters
Clouds
  • Scattered at 1,500' AGL
  • Scattered at 1,700' AGL
Dec-14 @ 00:00 - Dec-14 @ 02:00
Becoming Dec-14 @ 01:00 - Dec-15 @ 00:00
Wind Visibility
Variable at 2 knots 10,000+ meters
Clouds
  • Few at 2,000' AGL
Temporary Dec-14 @ 09:00 - Dec-14 @ 13:00
Clouds
  • Broken at 800' AGL
Conditions
  • Area Fog
Temporary Dec-14 @ 19:00 - Dec-14 @ 23:00
Wind
330° at 5 knots
Clouds
  • Scattered at 1,700' AGL